Kansai — JD3272 — position and weather

sailwx.info

Track history (hours):
 
Tides and Currents Weather Stations Pressure Air Temp Water Temp Dewpoint Dewpoint Depression Visibility Wind Speed Wind Dir Waves Ship Positions

Kansai

Last reported at 2015-Aug-30 02:26 UTC. Time now 2015-Aug-30 13:59 UTC.
Position N 34°01' E 135°00'.

Length 73 m; draft 4.2 m.

Type: Cargo ship. MMSI: 431003134.

Date/timePositionNaut miles runAvg speedWind from/ knotsBaromVisibWave heightAir tempDewpointWater temp
2015-Aug-30 02:26N 34°01' E 135°00'1010.9
2015-Aug-30 01:31N 34°10' E 134°59'  
2015-Aug-26 02:32N 34°03' E 135°00'17 8.4
2015-Aug-26 00:32N 34°20' E 134°60'6 5.7
2015-Aug-25 23:32N 34°25' E 135°04'5 5.5
2015-Aug-25 22:32N 34°28' E 135°09'5 5.1
2015-Aug-25 21:33N 34°32' E 135°13'5 4.7
2015-Aug-25 20:33N 34°36' E 135°16'5 4.7
2015-Aug-25 19:33N 34°41' E 135°15'1 1.3
2015-Aug-25 18:33N 34°42' E 135°15'0 0.0
2015-Aug-25 17:33N 34°42' E 135°15'0 0.0
2015-Aug-25 16:33N 34°42' E 135°15'0 0.0
2015-Aug-25 15:33N 34°42' E 135°15'0 0.0
2015-Aug-25 14:33N 34°42' E 135°15'0 0.0
2015-Aug-25 13:33N 34°42' E 135°15'0 0.0
2015-Aug-25 12:33N 34°42' E 135°15'0 0.0
2015-Aug-25 11:33N 34°42' E 135°15'0 0.0
2015-Aug-25 10:33N 34°42' E 135°15'0 0.0
2015-Aug-25 09:33N 34°42' E 135°15'0 0.0
2015-Aug-25 08:33N 34°42' E 135°15'0 0.0
2015-Aug-25 07:33N 34°42' E 135°15'0 0.0
2015-Aug-25 06:33N 34°42' E 135°15'0 0.0
2015-Aug-25 05:33N 34°42' E 135°15'0 0.0
2015-Aug-25 04:33N 34°42' E 135°15'0 0.0
2015-Aug-25 03:33N 34°42' E 135°15'0 0.0
2015-Aug-25 02:33N 34°42' E 135°15'0 0.0
2015-Aug-25 01:33N 34°42' E 135°15'0 0.0
2015-Aug-25 00:33N 34°42' E 135°15'0 0.0
2015-Aug-24 23:33N 34°42' E 135°15'4 3.8
2015-Aug-24 22:33N 34°42' E 135°20'0 0.0
2015-Aug-24 21:33N 34°42' E 135°20'0 0.0
2015-Aug-24 20:33N 34°42' E 135°20'0 0.0
2015-Aug-24 19:33N 34°42' E 135°20'0 0.0
2015-Aug-24 18:33N 34°42' E 135°20'0 0.0
2015-Aug-24 17:33N 34°42' E 135°20'0 0.0
2015-Aug-24 16:33N 34°42' E 135°20'0 0.0
2015-Aug-24 15:33N 34°42' E 135°20'0 0.0
2015-Aug-24 14:33N 34°42' E 135°20'0 0.0
2015-Aug-24 13:33N 34°42' E 135°20'0 0.0
2015-Aug-24 12:33N 34°42' E 135°20'0 0.0
2015-Aug-24 11:33N 34°42' E 135°20'0 0.0
2015-Aug-24 10:33N 34°42' E 135°20'0 0.0
2015-Aug-24 09:33N 34°42' E 135°20'0 0.1
2015-Aug-24 08:33N 34°42' E 135°20'0 0.0
2015-Aug-24 07:33N 34°42' E 135°20'0 0.0
2015-Aug-24 06:33N 34°42' E 135°20'0 0.0
2015-Aug-24 05:33N 34°42' E 135°20'0 0.0
2015-Aug-24 04:33N 34°42' E 135°20'0 0.0
2015-Aug-24 03:33N 34°42' E 135°20'0 0.0
2015-Aug-24 02:33N 34°42' E 135°20'0 0.0
2015-Aug-24 01:33N 34°42' E 135°20'0 0.0
2015-Aug-24 00:33N 34°42' E 135°20'0 0.1
2015-Aug-23 23:33N 34°42' E 135°20'0 0.0
2015-Aug-23 22:33N 34°42' E 135°20'0 0.0
2015-Aug-23 21:33N 34°42' E 135°20'0 0.0
2015-Aug-23 20:33N 34°42' E 135°20'0 0.0
2015-Aug-23 19:33N 34°42' E 135°20'0 0.0
2015-Aug-23 18:33N 34°42' E 135°20'0 0.0
2015-Aug-23 17:33N 34°42' E 135°20'0 0.0
2015-Aug-23 16:33N 34°42' E 135°20'0 0.0
2015-Aug-23 15:33N 34°42' E 135°20'0 0.0
2015-Aug-23 14:33N 34°42' E 135°20'4 3.9
2015-Aug-23 13:33N 34°42' E 135°15'0 0.0
2015-Aug-23 12:33N 34°42' E 135°15'0 0.0
2015-Aug-23 11:33N 34°42' E 135°15'0 0.0
2015-Aug-23 10:33N 34°42' E 135°15'0 0.0
2015-Aug-23 09:33N 34°42' E 135°15'0 0.0
2015-Aug-23 08:33N 34°42' E 135°15'0 0.0
2015-Aug-23 07:33N 34°42' E 135°15'0 0.0
2015-Aug-23 06:33N 34°42' E 135°15'0 0.0
2015-Aug-23 05:33N 34°42' E 135°15'0 0.0
2015-Aug-23 04:33N 34°42' E 135°15'0 0.0
2015-Aug-23 03:33N 34°42' E 135°15'0 0.0
2015-Aug-23 02:33N 34°42' E 135°15'0 0.0
2015-Aug-23 01:33N 34°42' E 135°15'0 0.0
2015-Aug-23 00:33N 34°42' E 135°15'0 0.0
2015-Aug-22 23:33N 34°42' E 135°15'4 4.5
2015-Aug-22 22:33N 34°38' E 135°15'1010.1
2015-Aug-22 21:33N 34°36' E 135°03'1212.2
2015-Aug-22 20:33N 34°40' E 134°49'  
Track history (hours):
 
Tides and Currents Weather Stations Pressure Air Temp Water Temp Dewpoint Dewpoint Depression Visibility Wind Speed Wind Dir Waves Ship Positions

Kansai

Last reported at 2015-Aug-30 02:26 UTC. Time now 2015-Aug-30 13:59 UTC.
Position N 34°01' E 135°00'.

Length 73 m; draft 4.2 m.

Type: Cargo ship. MMSI: 431003134.

Date/timePositionNaut miles runAvg speedWind from/ knotsBaromVisibWave heightAir tempDewpointWater temp
2015-Aug-30 02:26N 34°01' E 135°00'1010.9
2015-Aug-30 01:31N 34°10' E 134°59'  
2015-Aug-26 02:32N 34°03' E 135°00'17 8.4
2015-Aug-26 00:32N 34°20' E 134°60'6 5.7
2015-Aug-25 23:32N 34°25' E 135°04'5 5.5
2015-Aug-25 22:32N 34°28' E 135°09'5 5.1
2015-Aug-25 21:33N 34°32' E 135°13'5 4.7
2015-Aug-25 20:33N 34°36' E 135°16'5 4.7
2015-Aug-25 19:33N 34°41' E 135°15'1 1.3
2015-Aug-25 18:33N 34°42' E 135°15'0 0.0
2015-Aug-25 17:33N 34°42' E 135°15'0 0.0
2015-Aug-25 16:33N 34°42' E 135°15'0 0.0
2015-Aug-25 15:33N 34°42' E 135°15'0 0.0
2015-Aug-25 14:33N 34°42' E 135°15'0 0.0
2015-Aug-25 13:33N 34°42' E 135°15'0 0.0
2015-Aug-25 12:33N 34°42' E 135°15'0 0.0
2015-Aug-25 11:33N 34°42' E 135°15'0 0.0
2015-Aug-25 10:33N 34°42' E 135°15'0 0.0
2015-Aug-25 09:33N 34°42' E 135°15'0 0.0
2015-Aug-25 08:33N 34°42' E 135°15'0 0.0
2015-Aug-25 07:33N 34°42' E 135°15'0 0.0
2015-Aug-25 06:33N 34°42' E 135°15'0 0.0
2015-Aug-25 05:33N 34°42' E 135°15'0 0.0
2015-Aug-25 04:33N 34°42' E 135°15'0 0.0
2015-Aug-25 03:33N 34°42' E 135°15'0 0.0
2015-Aug-25 02:33N 34°42' E 135°15'0 0.0
2015-Aug-25 01:33N 34°42' E 135°15'0 0.0
2015-Aug-25 00:33N 34°42' E 135°15'0 0.0
2015-Aug-24 23:33N 34°42' E 135°15'4 3.8
2015-Aug-24 22:33N 34°42' E 135°20'0 0.0
2015-Aug-24 21:33N 34°42' E 135°20'0 0.0
2015-Aug-24 20:33N 34°42' E 135°20'0 0.0
2015-Aug-24 19:33N 34°42' E 135°20'0 0.0
2015-Aug-24 18:33N 34°42' E 135°20'0 0.0
2015-Aug-24 17:33N 34°42' E 135°20'0 0.0
2015-Aug-24 16:33N 34°42' E 135°20'0 0.0
2015-Aug-24 15:33N 34°42' E 135°20'0 0.0
2015-Aug-24 14:33N 34°42' E 135°20'0 0.0
2015-Aug-24 13:33N 34°42' E 135°20'0 0.0
2015-Aug-24 12:33N 34°42' E 135°20'0 0.0
2015-Aug-24 11:33N 34°42' E 135°20'0 0.0
2015-Aug-24 10:33N 34°42' E 135°20'0 0.0
2015-Aug-24 09:33N 34°42' E 135°20'0 0.1
2015-Aug-24 08:33N 34°42' E 135°20'0 0.0
2015-Aug-24 07:33N 34°42' E 135°20'0 0.0
2015-Aug-24 06:33N 34°42' E 135°20'0 0.0
2015-Aug-24 05:33N 34°42' E 135°20'0 0.0
2015-Aug-24 04:33N 34°42' E 135°20'0 0.0
2015-Aug-24 03:33N 34°42' E 135°20'0 0.0
2015-Aug-24 02:33N 34°42' E 135°20'0 0.0
2015-Aug-24 01:33N 34°42' E 135°20'0 0.0
2015-Aug-24 00:33N 34°42' E 135°20'0 0.1
2015-Aug-23 23:33N 34°42' E 135°20'0 0.0
2015-Aug-23 22:33N 34°42' E 135°20'0 0.0
2015-Aug-23 21:33N 34°42' E 135°20'0 0.0
2015-Aug-23 20:33N 34°42' E 135°20'0 0.0
2015-Aug-23 19:33N 34°42' E 135°20'0 0.0
2015-Aug-23 18:33N 34°42' E 135°20'0 0.0
2015-Aug-23 17:33N 34°42' E 135°20'0 0.0
2015-Aug-23 16:33N 34°42' E 135°20'0 0.0
2015-Aug-23 15:33N 34°42' E 135°20'0 0.0
2015-Aug-23 14:33N 34°42' E 135°20'4 3.9
2015-Aug-23 13:33N 34°42' E 135°15'0 0.0
2015-Aug-23 12:33N 34°42' E 135°15'0 0.0
2015-Aug-23 11:33N 34°42' E 135°15'0 0.0
2015-Aug-23 10:33N 34°42' E 135°15'0 0.0
2015-Aug-23 09:33N 34°42' E 135°15'0 0.0
2015-Aug-23 08:33N 34°42' E 135°15'0 0.0
2015-Aug-23 07:33N 34°42' E 135°15'0 0.0
2015-Aug-23 06:33N 34°42' E 135°15'0 0.0
2015-Aug-23 05:33N 34°42' E 135°15'0 0.0
2015-Aug-23 04:33N 34°42' E 135°15'0 0.0
2015-Aug-23 03:33N 34°42' E 135°15'0 0.0
2015-Aug-23 02:33N 34°42' E 135°15'0 0.0
2015-Aug-23 01:33N 34°42' E 135°15'0 0.0
2015-Aug-23 00:33N 34°42' E 135°15'0 0.0
2015-Aug-22 23:33N 34°42' E 135°15'4 4.5
2015-Aug-22 22:33N 34°38' E 135°15'1010.1
2015-Aug-22 21:33N 34°36' E 135°03'1212.2
2015-Aug-22 20:33N 34°40' E 134°49'  

Dump ship's entire track history